Allen, South Dakota
Current Conditions -  °F | °C
As of 12:52 AM on Friday 24 Oct 2014 (Local Time) from KIEN Reporting Station
Clear Clear  
Wind Chill: 37°   Ceiling: Unl
Heat Index: 37°   Visibility: 10mi
Dew Point: 33°   Wind: 3mph
Humidity: 86%   Direction: 70°ENE
Pressure: 29.94"   Gusts: NA
Location:  43.28°N, 101.93°W
Report Text: KIEN 240652Z AUTO 07003KT 10SM CLR 03/01 A2994 RMK AO2 SLP134 T00280006 402221050
Loading
Personal Weather Stations






























Interactive Weather Map
Tropical Storm Tracking
New forecast layout! Learn more

10-Day Weather Forecast

Advertisements
Track Severe Weather on mobile